sensor_id;sensor_type;location;lat;lon;timestamp;P1;durP1;ratioP1;P2;durP2;ratioP2
21905;SDS011;11117;48.644;9.006;2022-11-20T00:01:28;8.80;;;5.23;;
21905;SDS011;11117;48.644;9.006;2022-11-20T00:03:55;8.77;;;5.17;;
21905;SDS011;11117;48.644;9.006;2022-11-20T00:06:21;7.80;;;4.63;;
21905;SDS011;11117;48.644;9.006;2022-11-20T00:08:47;9.73;;;4.63;;
21905;SDS011;11117;48.644;9.006;2022-11-20T00:11:14;9.50;;;4.40;;
21905;SDS011;11117;48.644;9.006;2022-11-20T00:13:45;9.00;;;5.43;;
21905;SDS011;11117;48.644;9.006;2022-11-20T00:16:13;8.60;;;4.83;;
21905;SDS011;11117;48.644;9.006;2022-11-20T00:18:41;6.07;;;4.53;;
21905;SDS011;11117;48.644;9.006;2022-11-20T00:21:09;6.83;;;4.40;;
21905;SDS011;11117;48.644;9.006;2022-11-20T00:23:37;7.60;;;4.50;;
21905;SDS011;11117;48.644;9.006;2022-11-20T00:26:07;9.27;;;4.90;;
21905;SDS011;11117;48.644;9.006;2022-11-20T00:28:35;7.53;;;4.57;;
21905;SDS011;11117;48.644;9.006;2022-11-20T00:31:05;6.60;;;4.60;;
21905;SDS011;11117;48.644;9.006;2022-11-20T00:33:35;6.37;;;4.43;;
21905;SDS011;11117;48.644;9.006;2022-11-20T00:36:01;9.07;;;4.73;;
21905;SDS011;11117;48.644;9.006;2022-11-20T00:38:29;10.37;;;4.70;;
21905;SDS011;11117;48.644;9.006;2022-11-20T00:40:59;10.23;;;4.73;;
21905;SDS011;11117;48.644;9.006;2022-11-20T00:43:29;6.57;;;4.30;;
21905;SDS011;11117;48.644;9.006;2022-11-20T00:45:58;7.37;;;4.50;;
21905;SDS011;11117;48.644;9.006;2022-11-20T00:48:25;9.23;;;4.43;;
21905;SDS011;11117;48.644;9.006;2022-11-20T00:50:51;6.23;;;4.47;;
21905;SDS011;11117;48.644;9.006;2022-11-20T00:53:17;7.10;;;3.90;;
21905;SDS011;11117;48.644;9.006;2022-11-20T00:55:42;7.57;;;4.00;;
21905;SDS011;11117;48.644;9.006;2022-11-20T00:58:19;8.07;;;4.23;;
21905;SDS011;11117;48.644;9.006;2022-11-20T01:00:45;7.17;;;4.20;;
21905;SDS011;11117;48.644;9.006;2022-11-20T01:03:11;7.17;;;4.27;;
21905;SDS011;11117;48.644;9.006;2022-11-20T01:05:36;8.70;;;4.17;;
21905;SDS011;11117;48.644;9.006;2022-11-20T01:08:03;9.67;;;4.50;;
21905;SDS011;11117;48.644;9.006;2022-11-20T01:10:29;7.23;;;4.30;;
21905;SDS011;11117;48.644;9.006;2022-11-20T01:12:54;8.33;;;4.73;;
21905;SDS011;11117;48.644;9.006;2022-11-20T01:15:20;9.93;;;3.80;;
21905;SDS011;11117;48.644;9.006;2022-11-20T01:17:45;7.43;;;4.07;;
21905;SDS011;11117;48.644;9.006;2022-11-20T01:20:11;6.73;;;4.30;;
21905;SDS011;11117;48.644;9.006;2022-11-20T01:22:36;9.03;;;4.10;;
21905;SDS011;11117;48.644;9.006;2022-11-20T01:25:02;7.10;;;4.00;;
21905;SDS011;11117;48.644;9.006;2022-11-20T01:27:28;10.20;;;4.30;;
21905;SDS011;11117;48.644;9.006;2022-11-20T01:29:53;6.00;;;4.00;;
21905;SDS011;11117;48.644;9.006;2022-11-20T01:32:19;8.10;;;4.27;;
21905;SDS011;11117;48.644;9.006;2022-11-20T01:34:44;6.40;;;4.30;;
21905;SDS011;11117;48.644;9.006;2022-11-20T01:37:10;9.10;;;4.90;;
21905;SDS011;11117;48.644;9.006;2022-11-20T01:39:36;7.20;;;4.27;;
21905;SDS011;11117;48.644;9.006;2022-11-20T01:42:02;7.73;;;4.10;;
21905;SDS011;11117;48.644;9.006;2022-11-20T01:47:15;7.67;;;4.27;;
21905;SDS011;11117;48.644;9.006;2022-11-20T01:49:57;8.57;;;4.70;;
21905;SDS011;11117;48.644;9.006;2022-11-20T01:52:45;7.87;;;4.60;;
21905;SDS011;11117;48.644;9.006;2022-11-20T01:55:22;6.67;;;4.90;;
21905;SDS011;11117;48.644;9.006;2022-11-20T01:57:50;7.40;;;5.03;;
21905;SDS011;11117;48.644;9.006;2022-11-20T02:00:17;10.90;;;5.30;;
21905;SDS011;11117;48.644;9.006;2022-11-20T02:02:48;10.20;;;5.73;;
21905;SDS011;11117;48.644;9.006;2022-11-20T02:05:22;8.40;;;5.70;;
21905;SDS011;11117;48.644;9.006;2022-11-20T02:07:54;9.03;;;5.27;;
21905;SDS011;11117;48.644;9.006;2022-11-20T02:10:22;10.63;;;6.20;;
21905;SDS011;11117;48.644;9.006;2022-11-20T02:12:48;10.10;;;6.40;;
21905;SDS011;11117;48.644;9.006;2022-11-20T02:15:14;12.90;;;6.80;;
21905;SDS011;11117;48.644;9.006;2022-11-20T02:17:40;12.63;;;7.20;;
21905;SDS011;11117;48.644;9.006;2022-11-20T02:20:05;14.00;;;7.63;;
21905;SDS011;11117;48.644;9.006;2022-11-20T02:22:33;11.20;;;7.40;;
21905;SDS011;11117;48.644;9.006;2022-11-20T02:25:19;15.37;;;8.43;;
21905;SDS011;11117;48.644;9.006;2022-11-20T02:27:45;12.93;;;7.87;;
21905;SDS011;11117;48.644;9.006;2022-11-20T02:30:11;13.23;;;8.20;;
21905;SDS011;11117;48.644;9.006;2022-11-20T02:32:38;14.80;;;8.43;;
21905;SDS011;11117;48.644;9.006;2022-11-20T02:35:38;14.40;;;8.43;;
21905;SDS011;11117;48.644;9.006;2022-11-20T02:37:59;14.43;;;8.17;;
21905;SDS011;11117;48.644;9.006;2022-11-20T02:40:27;14.80;;;8.13;;
21905;SDS011;11117;48.644;9.006;2022-11-20T02:42:53;14.33;;;7.63;;
21905;SDS011;11117;48.644;9.006;2022-11-20T02:45:19;13.63;;;8.13;;
21905;SDS011;11117;48.644;9.006;2022-11-20T02:47:44;13.30;;;8.10;;
21905;SDS011;11117;48.644;9.006;2022-11-20T02:50:10;12.93;;;7.93;;
21905;SDS011;11117;48.644;9.006;2022-11-20T02:52:36;14.83;;;7.80;;
21905;SDS011;11117;48.644;9.006;2022-11-20T02:55:01;12.20;;;7.43;;
21905;SDS011;11117;48.644;9.006;2022-11-20T02:57:28;12.77;;;8.00;;
21905;SDS011;11117;48.644;9.006;2022-11-20T02:59:53;14.17;;;8.20;;
21905;SDS011;11117;48.644;9.006;2022-11-20T03:02:19;13.23;;;7.70;;
21905;SDS011;11117;48.644;9.006;2022-11-20T03:04:45;13.23;;;7.57;;
21905;SDS011;11117;48.644;9.006;2022-11-20T03:07:10;15.13;;;8.03;;
21905;SDS011;11117;48.644;9.006;2022-11-20T03:09:36;13.23;;;7.40;;
21905;SDS011;11117;48.644;9.006;2022-11-20T03:12:04;12.60;;;7.40;;
21905;SDS011;11117;48.644;9.006;2022-11-20T03:14:32;13.37;;;7.43;;
21905;SDS011;11117;48.644;9.006;2022-11-20T03:16:59;12.23;;;6.90;;
21905;SDS011;11117;48.644;9.006;2022-11-20T03:19:24;13.43;;;7.57;;
21905;SDS011;11117;48.644;9.006;2022-11-20T03:21:50;17.63;;;7.70;;
21905;SDS011;11117;48.644;9.006;2022-11-20T03:24:15;10.60;;;7.07;;
21905;SDS011;11117;48.644;9.006;2022-11-20T03:26:41;12.60;;;7.60;;
21905;SDS011;11117;48.644;9.006;2022-11-20T03:29:07;13.23;;;7.80;;
21905;SDS011;11117;48.644;9.006;2022-11-20T03:31:34;14.23;;;8.07;;
21905;SDS011;11117;48.644;9.006;2022-11-20T03:34:02;13.73;;;7.77;;
21905;SDS011;11117;48.644;9.006;2022-11-20T03:36:29;13.20;;;7.80;;
21905;SDS011;11117;48.644;9.006;2022-11-20T03:38:55;14.37;;;7.73;;
21905;SDS011;11117;48.644;9.006;2022-11-20T03:41:22;11.90;;;7.73;;
21905;SDS011;11117;48.644;9.006;2022-11-20T03:43:53;15.97;;;8.70;;
21905;SDS011;11117;48.644;9.006;2022-11-20T03:46:23;13.33;;;7.73;;
21905;SDS011;11117;48.644;9.006;2022-11-20T03:48:49;14.53;;;7.50;;
21905;SDS011;11117;48.644;9.006;2022-11-20T03:53:42;13.70;;;8.17;;
21905;SDS011;11117;48.644;9.006;2022-11-20T03:56:10;15.97;;;8.17;;
21905;SDS011;11117;48.644;9.006;2022-11-20T03:58:37;15.17;;;7.87;;
21905;SDS011;11117;48.644;9.006;2022-11-20T04:01:08;14.70;;;7.93;;
21905;SDS011;11117;48.644;9.006;2022-11-20T04:03:39;14.70;;;7.90;;
21905;SDS011;11117;48.644;9.006;2022-11-20T04:06:08;14.23;;;7.70;;
21905;SDS011;11117;48.644;9.006;2022-11-20T04:08:39;13.57;;;7.33;;
21905;SDS011;11117;48.644;9.006;2022-11-20T04:11:08;13.53;;;7.73;;
21905;SDS011;11117;48.644;9.006;2022-11-20T04:13:38;11.33;;;6.93;;
21905;SDS011;11117;48.644;9.006;2022-11-20T04:16:08;10.00;;;6.57;;
21905;SDS011;11117;48.644;9.006;2022-11-20T04:18:34;13.43;;;6.97;;
21905;SDS011;11117;48.644;9.006;2022-11-20T04:21:00;11.87;;;6.90;;
21905;SDS011;11117;48.644;9.006;2022-11-20T04:23:27;11.53;;;6.37;;
21905;SDS011;11117;48.644;9.006;2022-11-20T04:25:53;9.40;;;5.93;;
21905;SDS011;11117;48.644;9.006;2022-11-20T04:28:19;9.93;;;6.27;;
21905;SDS011;11117;48.644;9.006;2022-11-20T04:30:44;9.47;;;6.33;;
21905;SDS011;11117;48.644;9.006;2022-11-20T04:33:10;9.40;;;5.60;;
21905;SDS011;11117;48.644;9.006;2022-11-20T04:35:36;10.33;;;6.13;;
21905;SDS011;11117;48.644;9.006;2022-11-20T04:38:02;11.73;;;6.40;;
21905;SDS011;11117;48.644;9.006;2022-11-20T04:40:29;9.37;;;5.80;;
21905;SDS011;11117;48.644;9.006;2022-11-20T04:42:55;12.50;;;5.90;;
21905;SDS011;11117;48.644;9.006;2022-11-20T04:45:22;8.30;;;5.73;;
21905;SDS011;11117;48.644;9.006;2022-11-20T04:47:48;10.87;;;6.37;;
21905;SDS011;11117;48.644;9.006;2022-11-20T04:50:13;7.83;;;5.70;;
21905;SDS011;11117;48.644;9.006;2022-11-20T04:52:39;8.63;;;5.80;;
21905;SDS011;11117;48.644;9.006;2022-11-20T04:55:05;8.73;;;5.73;;
21905;SDS011;11117;48.644;9.006;2022-11-20T04:57:31;8.10;;;5.27;;
21905;SDS011;11117;48.644;9.006;2022-11-20T04:59:56;12.33;;;5.73;;
21905;SDS011;11117;48.644;9.006;2022-11-20T05:02:22;8.87;;;5.30;;
21905;SDS011;11117;48.644;9.006;2022-11-20T05:04:48;9.03;;;5.50;;
21905;SDS011;11117;48.644;9.006;2022-11-20T05:07:13;8.13;;;5.17;;
21905;SDS011;11117;48.644;9.006;2022-11-20T05:09:41;8.97;;;5.30;;
21905;SDS011;11117;48.644;9.006;2022-11-20T05:12:07;9.33;;;5.50;;
21905;SDS011;11117;48.644;9.006;2022-11-20T05:14:33;8.93;;;4.93;;
21905;SDS011;11117;48.644;9.006;2022-11-20T05:16:59;7.63;;;4.97;;
21905;SDS011;11117;48.644;9.006;2022-11-20T05:19:25;9.83;;;4.90;;
21905;SDS011;11117;48.644;9.006;2022-11-20T05:21:51;7.83;;;5.07;;
21905;SDS011;11117;48.644;9.006;2022-11-20T05:24:16;6.33;;;4.80;;
21905;SDS011;11117;48.644;9.006;2022-11-20T05:26:43;10.27;;;5.03;;
21905;SDS011;11117;48.644;9.006;2022-11-20T05:29:10;9.40;;;5.20;;
21905;SDS011;11117;48.644;9.006;2022-11-20T05:31:36;7.10;;;4.93;;
21905;SDS011;11117;48.644;9.006;2022-11-20T05:34:05;8.33;;;4.87;;
21905;SDS011;11117;48.644;9.006;2022-11-20T05:36:30;7.57;;;4.83;;
21905;SDS011;11117;48.644;9.006;2022-11-20T05:38:56;9.60;;;4.40;;
21905;SDS011;11117;48.644;9.006;2022-11-20T05:41:22;7.20;;;4.60;;
21905;SDS011;11117;48.644;9.006;2022-11-20T05:43:48;6.90;;;4.10;;
21905;SDS011;11117;48.644;9.006;2022-11-20T05:46:15;7.13;;;4.90;;
21905;SDS011;11117;48.644;9.006;2022-11-20T05:48:43;7.80;;;4.83;;
21905;SDS011;11117;48.644;9.006;2022-11-20T05:51:10;8.27;;;4.97;;
21905;SDS011;11117;48.644;9.006;2022-11-20T05:53:37;6.97;;;4.33;;
21905;SDS011;11117;48.644;9.006;2022-11-20T05:56:04;6.40;;;4.33;;
21905;SDS011;11117;48.644;9.006;2022-11-20T05:58:35;6.70;;;4.57;;
21905;SDS011;11117;48.644;9.006;2022-11-20T06:01:06;5.97;;;4.30;;
21905;SDS011;11117;48.644;9.006;2022-11-20T06:03:31;7.33;;;4.87;;
21905;SDS011;11117;48.644;9.006;2022-11-20T06:05:58;6.27;;;4.10;;
21905;SDS011;11117;48.644;9.006;2022-11-20T06:08:24;6.97;;;4.33;;
21905;SDS011;11117;48.644;9.006;2022-11-20T06:10:50;6.53;;;4.07;;
21905;SDS011;11117;48.644;9.006;2022-11-20T06:13:15;6.97;;;4.50;;
21905;SDS011;11117;48.644;9.006;2022-11-20T06:15:41;7.47;;;4.57;;
21905;SDS011;11117;48.644;9.006;2022-11-20T06:18:06;7.20;;;4.83;;
21905;SDS011;11117;48.644;9.006;2022-11-20T06:20:32;8.30;;;4.33;;
21905;SDS011;11117;48.644;9.006;2022-11-20T06:22:57;7.37;;;4.07;;
21905;SDS011;11117;48.644;9.006;2022-11-20T06:25:23;6.63;;;4.70;;
21905;SDS011;11117;48.644;9.006;2022-11-20T06:27:48;8.97;;;4.37;;
21905;SDS011;11117;48.644;9.006;2022-11-20T06:30:14;6.93;;;4.50;;
21905;SDS011;11117;48.644;9.006;2022-11-20T06:32:40;6.00;;;4.57;;
21905;SDS011;11117;48.644;9.006;2022-11-20T06:35:05;9.40;;;4.60;;
21905;SDS011;11117;48.644;9.006;2022-11-20T06:37:31;8.77;;;4.47;;
21905;SDS011;11117;48.644;9.006;2022-11-20T06:39:56;6.57;;;4.27;;
21905;SDS011;11117;48.644;9.006;2022-11-20T06:42:22;7.30;;;4.23;;
21905;SDS011;11117;48.644;9.006;2022-11-20T06:44:47;7.00;;;4.07;;
21905;SDS011;11117;48.644;9.006;2022-11-20T06:47:13;6.77;;;4.50;;
21905;SDS011;11117;48.644;9.006;2022-11-20T06:49:38;5.90;;;4.53;;
21905;SDS011;11117;48.644;9.006;2022-11-20T06:52:04;8.47;;;4.67;;
21905;SDS011;11117;48.644;9.006;2022-11-20T06:54:29;6.90;;;4.27;;
21905;SDS011;11117;48.644;9.006;2022-11-20T06:56:55;6.67;;;4.43;;
21905;SDS011;11117;48.644;9.006;2022-11-20T06:59:20;5.63;;;4.17;;
21905;SDS011;11117;48.644;9.006;2022-11-20T07:01:46;5.13;;;3.90;;
21905;SDS011;11117;48.644;9.006;2022-11-20T07:04:11;7.53;;;4.30;;
21905;SDS011;11117;48.644;9.006;2022-11-20T07:06:37;7.77;;;4.30;;
21905;SDS011;11117;48.644;9.006;2022-11-20T07:09:03;5.63;;;4.00;;
21905;SDS011;11117;48.644;9.006;2022-11-20T07:11:28;7.37;;;4.20;;
21905;SDS011;11117;48.644;9.006;2022-11-20T07:13:53;7.07;;;4.77;;
21905;SDS011;11117;48.644;9.006;2022-11-20T07:16:19;5.60;;;4.00;;
21905;SDS011;11117;48.644;9.006;2022-11-20T07:18:45;7.57;;;4.43;;
21905;SDS011;11117;48.644;9.006;2022-11-20T07:21:10;7.33;;;4.30;;
21905;SDS011;11117;48.644;9.006;2022-11-20T07:23:36;8.27;;;4.40;;
21905;SDS011;11117;48.644;9.006;2022-11-20T07:26:02;7.70;;;4.80;;
21905;SDS011;11117;48.644;9.006;2022-11-20T07:28:33;7.13;;;4.03;;
21905;SDS011;11117;48.644;9.006;2022-11-20T07:30:58;6.50;;;4.03;;
21905;SDS011;11117;48.644;9.006;2022-11-20T07:33:24;7.13;;;4.10;;
21905;SDS011;11117;48.644;9.006;2022-11-20T07:35:50;8.23;;;4.33;;
21905;SDS011;11117;48.644;9.006;2022-11-20T07:38:15;9.77;;;4.37;;
21905;SDS011;11117;48.644;9.006;2022-11-20T07:40:41;5.90;;;4.03;;
21905;SDS011;11117;48.644;9.006;2022-11-20T07:43:06;5.87;;;3.70;;
21905;SDS011;11117;48.644;9.006;2022-11-20T07:45:32;6.03;;;3.70;;
21905;SDS011;11117;48.644;9.006;2022-11-20T07:47:57;5.23;;;3.87;;
21905;SDS011;11117;48.644;9.006;2022-11-20T07:50:23;5.03;;;3.77;;
21905;SDS011;11117;48.644;9.006;2022-11-20T07:52:48;7.00;;;3.93;;
21905;SDS011;11117;48.644;9.006;2022-11-20T07:55:14;6.73;;;4.47;;
21905;SDS011;11117;48.644;9.006;2022-11-20T07:57:40;7.27;;;4.27;;
21905;SDS011;11117;48.644;9.006;2022-11-20T08:00:06;7.03;;;4.40;;
21905;SDS011;11117;48.644;9.006;2022-11-20T08:02:33;4.80;;;3.30;;
21905;SDS011;11117;48.644;9.006;2022-11-20T08:04:59;7.47;;;5.07;;
21905;SDS011;11117;48.644;9.006;2022-11-20T08:07:24;9.73;;;6.37;;
21905;SDS011;11117;48.644;9.006;2022-11-20T08:09:50;11.30;;;6.97;;
21905;SDS011;11117;48.644;9.006;2022-11-20T08:12:19;7.93;;;5.50;;
21905;SDS011;11117;48.644;9.006;2022-11-20T08:14:45;9.30;;;5.40;;
21905;SDS011;11117;48.644;9.006;2022-11-20T08:17:11;5.40;;;4.03;;
21905;SDS011;11117;48.644;9.006;2022-11-20T08:19:36;5.53;;;3.90;;
21905;SDS011;11117;48.644;9.006;2022-11-20T08:22:02;4.03;;;3.23;;
21905;SDS011;11117;48.644;9.006;2022-11-20T08:24:27;6.07;;;3.43;;
21905;SDS011;11117;48.644;9.006;2022-11-20T08:26:53;5.10;;;3.50;;
21905;SDS011;11117;48.644;9.006;2022-11-20T08:29:18;5.30;;;3.90;;
21905;SDS011;11117;48.644;9.006;2022-11-20T08:31:44;5.77;;;3.40;;
21905;SDS011;11117;48.644;9.006;2022-11-20T08:34:09;6.17;;;3.27;;
21905;SDS011;11117;48.644;9.006;2022-11-20T08:36:35;4.27;;;3.10;;
21905;SDS011;11117;48.644;9.006;2022-11-20T08:39:01;4.27;;;3.17;;
21905;SDS011;11117;48.644;9.006;2022-11-20T08:41:28;4.33;;;2.90;;
21905;SDS011;11117;48.644;9.006;2022-11-20T08:43:55;5.00;;;2.90;;
21905;SDS011;11117;48.644;9.006;2022-11-20T08:46:21;5.50;;;2.90;;
21905;SDS011;11117;48.644;9.006;2022-11-20T08:48:48;4.67;;;2.87;;
21905;SDS011;11117;48.644;9.006;2022-11-20T08:51:14;3.60;;;2.50;;
21905;SDS011;11117;48.644;9.006;2022-11-20T08:53:40;5.33;;;3.60;;
21905;SDS011;11117;48.644;9.006;2022-11-20T08:56:06;4.47;;;2.60;;
21905;SDS011;11117;48.644;9.006;2022-11-20T08:58:32;3.30;;;2.20;;
21905;SDS011;11117;48.644;9.006;2022-11-20T09:00:57;4.63;;;2.77;;
21905;SDS011;11117;48.644;9.006;2022-11-20T09:03:23;3.83;;;2.43;;
21905;SDS011;11117;48.644;9.006;2022-11-20T09:05:49;2.87;;;2.20;;
21905;SDS011;11117;48.644;9.006;2022-11-20T09:08:14;3.83;;;1.90;;
21905;SDS011;11117;48.644;9.006;2022-11-20T09:10:40;7.70;;;4.17;;
21905;SDS011;11117;48.644;9.006;2022-11-20T09:13:06;2.50;;;1.87;;
21905;SDS011;11117;48.644;9.006;2022-11-20T09:15:32;3.40;;;2.30;;
21905;SDS011;11117;48.644;9.006;2022-11-20T09:18:03;5.67;;;2.87;;
21905;SDS011;11117;48.644;9.006;2022-11-20T09:20:29;3.77;;;2.43;;
21905;SDS011;11117;48.644;9.006;2022-11-20T09:22:55;3.13;;;2.37;;
21905;SDS011;11117;48.644;9.006;2022-11-20T09:25:22;2.40;;;1.80;;
21905;SDS011;11117;48.644;9.006;2022-11-20T09:27:54;2.33;;;1.57;;
21905;SDS011;11117;48.644;9.006;2022-11-20T09:30:20;1.93;;;1.73;;
21905;SDS011;11117;48.644;9.006;2022-11-20T09:32:46;4.47;;;2.43;;
21905;SDS011;11117;48.644;9.006;2022-11-20T09:35:11;2.07;;;1.70;;
21905;SDS011;11117;48.644;9.006;2022-11-20T09:37:37;3.60;;;2.60;;
21905;SDS011;11117;48.644;9.006;2022-11-20T09:40:03;2.07;;;1.53;;
21905;SDS011;11117;48.644;9.006;2022-11-20T09:42:37;3.00;;;1.60;;
21905;SDS011;11117;48.644;9.006;2022-11-20T09:53:12;2.30;;;1.80;;
21905;SDS011;11117;48.644;9.006;2022-11-20T09:55:39;4.43;;;1.40;;
21905;SDS011;11117;48.644;9.006;2022-11-20T09:58:10;2.73;;;1.60;;
21905;SDS011;11117;48.644;9.006;2022-11-20T10:00:52;1.30;;;1.20;;
21905;SDS011;11117;48.644;9.006;2022-11-20T10:03:20;2.90;;;1.90;;
21905;SDS011;11117;48.644;9.006;2022-11-20T10:05:56;1.40;;;1.30;;
21905;SDS011;11117;48.644;9.006;2022-11-20T10:08:31;1.20;;;1.10;;
21905;SDS011;11117;48.644;9.006;2022-11-20T10:13:49;1.47;;;1.27;;
21905;SDS011;11117;48.644;9.006;2022-11-20T10:25:15;1.23;;;1.13;;
21905;SDS011;11117;48.644;9.006;2022-11-20T10:30:18;2.07;;;1.20;;
21905;SDS011;11117;48.644;9.006;2022-11-20T10:32:46;3.17;;;1.70;;
21905;SDS011;11117;48.644;9.006;2022-11-20T10:35:22;3.37;;;1.87;;
21905;SDS011;11117;48.644;9.006;2022-11-20T10:37:58;3.80;;;1.90;;
21905;SDS011;11117;48.644;9.006;2022-11-20T10:43:08;3.17;;;1.80;;
21905;SDS011;11117;48.644;9.006;2022-11-20T10:48:15;6.03;;;1.80;;
21905;SDS011;11117;48.644;9.006;2022-11-20T10:51:06;6.73;;;2.20;;
21905;SDS011;11117;48.644;9.006;2022-11-20T10:57:10;5.70;;;2.10;;
21905;SDS011;11117;48.644;9.006;2022-11-20T11:00:00;6.43;;;2.60;;
21905;SDS011;11117;48.644;9.006;2022-11-20T11:02:33;6.00;;;1.90;;
21905;SDS011;11117;48.644;9.006;2022-11-20T11:05:14;5.77;;;2.10;;
21905;SDS011;11117;48.644;9.006;2022-11-20T11:07:42;6.37;;;1.97;;
21905;SDS011;11117;48.644;9.006;2022-11-20T11:12:44;6.03;;;2.80;;
21905;SDS011;11117;48.644;9.006;2022-11-20T11:15:24;8.37;;;4.40;;
21905;SDS011;11117;48.644;9.006;2022-11-20T11:17:55;4.97;;;3.00;;
21905;SDS011;11117;48.644;9.006;2022-11-20T11:20:22;4.63;;;3.00;;
21905;SDS011;11117;48.644;9.006;2022-11-20T11:22:51;7.17;;;3.30;;
21905;SDS011;11117;48.644;9.006;2022-11-20T11:25:22;7.03;;;3.03;;
21905;SDS011;11117;48.644;9.006;2022-11-20T11:27:50;4.07;;;2.00;;
21905;SDS011;11117;48.644;9.006;2022-11-20T11:30:18;2.53;;;1.83;;
21905;SDS011;11117;48.644;9.006;2022-11-20T11:32:44;2.33;;;1.30;;
21905;SDS011;11117;48.644;9.006;2022-11-20T11:35:23;3.80;;;1.50;;
21905;SDS011;11117;48.644;9.006;2022-11-20T11:37:54;3.40;;;1.30;;
21905;SDS011;11117;48.644;9.006;2022-11-20T11:40:32;4.17;;;1.17;;
21905;SDS011;11117;48.644;9.006;2022-11-20T11:43:01;6.73;;;1.90;;
21905;SDS011;11117;48.644;9.006;2022-11-20T11:45:30;2.43;;;2.00;;
21905;SDS011;11117;48.644;9.006;2022-11-20T11:47:57;4.40;;;2.33;;
21905;SDS011;11117;48.644;9.006;2022-11-20T11:50:26;3.43;;;1.80;;
21905;SDS011;11117;48.644;9.006;2022-11-20T11:55:42;4.17;;;1.67;;
21905;SDS011;11117;48.644;9.006;2022-11-20T11:58:33;2.77;;;1.70;;
21905;SDS011;11117;48.644;9.006;2022-11-20T12:04:03;2.63;;;1.77;;
21905;SDS011;11117;48.644;9.006;2022-11-20T12:06:57;1.80;;;1.30;;
21905;SDS011;11117;48.644;9.006;2022-11-20T12:09:27;1.90;;;1.10;;
21905;SDS011;11117;48.644;9.006;2022-11-20T12:12:09;2.37;;;1.53;;
21905;SDS011;11117;48.644;9.006;2022-11-20T12:14:40;6.73;;;1.63;;
21905;SDS011;11117;48.644;9.006;2022-11-20T12:17:09;2.57;;;1.30;;
21905;SDS011;11117;48.644;9.006;2022-11-20T12:19:36;1.40;;;1.30;;
21905;SDS011;11117;48.644;9.006;2022-11-20T12:22:09;2.07;;;1.20;;
21905;SDS011;11117;48.644;9.006;2022-11-20T12:24:52;6.87;;;1.30;;
21905;SDS011;11117;48.644;9.006;2022-11-20T12:43:46;3.33;;;1.67;;
21905;SDS011;11117;48.644;9.006;2022-11-20T12:54:54;3.77;;;1.70;;
21905;SDS011;11117;48.644;9.006;2022-11-20T12:57:50;2.17;;;1.50;;
21905;SDS011;11117;48.644;9.006;2022-11-20T13:00:20;3.03;;;1.30;;
21905;SDS011;11117;48.644;9.006;2022-11-20T13:05:40;3.23;;;0.93;;
21905;SDS011;11117;48.644;9.006;2022-11-20T13:08:36;2.27;;;1.10;;
21905;SDS011;11117;48.644;9.006;2022-11-20T13:11:39;2.93;;;1.23;;
21905;SDS011;11117;48.644;9.006;2022-11-20T13:17:13;2.13;;;1.00;;
21905;SDS011;11117;48.644;9.006;2022-11-20T13:19:48;1.70;;;0.80;;
21905;SDS011;11117;48.644;9.006;2022-11-20T13:22:25;4.67;;;1.00;;
21905;SDS011;11117;48.644;9.006;2022-11-20T13:25:08;2.13;;;0.90;;
21905;SDS011;11117;48.644;9.006;2022-11-20T13:27:35;5.40;;;1.00;;
21905;SDS011;11117;48.644;9.006;2022-11-20T13:30:17;3.37;;;1.10;;
21905;SDS011;11117;48.644;9.006;2022-11-20T13:32:51;2.17;;;0.90;;
21905;SDS011;11117;48.644;9.006;2022-11-20T13:35:31;2.27;;;1.10;;
21905;SDS011;11117;48.644;9.006;2022-11-20T13:38:00;2.30;;;1.00;;
21905;SDS011;11117;48.644;9.006;2022-11-20T13:40:28;3.33;;;0.90;;
21905;SDS011;11117;48.644;9.006;2022-11-20T13:45:28;2.13;;;1.10;;
21905;SDS011;11117;48.644;9.006;2022-11-20T13:47:56;3.33;;;1.10;;
21905;SDS011;11117;48.644;9.006;2022-11-20T13:50:44;2.93;;;1.50;;
21905;SDS011;11117;48.644;9.006;2022-11-20T13:56:17;6.80;;;2.90;;
21905;SDS011;11117;48.644;9.006;2022-11-20T13:59:25;3.03;;;1.40;;
21905;SDS011;11117;48.644;9.006;2022-11-20T14:02:18;5.17;;;1.70;;
21905;SDS011;11117;48.644;9.006;2022-11-20T14:04:47;2.97;;;1.67;;
21905;SDS011;11117;48.644;9.006;2022-11-20T14:07:15;2.53;;;1.67;;
21905;SDS011;11117;48.644;9.006;2022-11-20T14:09:53;3.40;;;1.90;;
21905;SDS011;11117;48.644;9.006;2022-11-20T14:12:30;3.97;;;1.70;;
21905;SDS011;11117;48.644;9.006;2022-11-20T14:14:58;3.27;;;1.60;;
21905;SDS011;11117;48.644;9.006;2022-11-20T14:17:30;2.73;;;1.47;;
21905;SDS011;11117;48.644;9.006;2022-11-20T14:20:02;4.90;;;2.37;;
21905;SDS011;11117;48.644;9.006;2022-11-20T14:22:30;3.30;;;2.23;;
21905;SDS011;11117;48.644;9.006;2022-11-20T14:25:06;4.20;;;2.00;;
21905;SDS011;11117;48.644;9.006;2022-11-20T14:27:45;3.90;;;1.87;;
21905;SDS011;11117;48.644;9.006;2022-11-20T14:30:21;2.50;;;1.77;;
21905;SDS011;11117;48.644;9.006;2022-11-20T14:32:49;3.97;;;2.00;;
21905;SDS011;11117;48.644;9.006;2022-11-20T14:38:00;4.37;;;2.47;;
21905;SDS011;11117;48.644;9.006;2022-11-20T14:40:31;5.33;;;2.17;;
21905;SDS011;11117;48.644;9.006;2022-11-20T14:43:00;3.63;;;2.20;;
21905;SDS011;11117;48.644;9.006;2022-11-20T14:45:26;4.70;;;2.33;;
21905;SDS011;11117;48.644;9.006;2022-11-20T14:47:52;5.57;;;2.33;;
21905;SDS011;11117;48.644;9.006;2022-11-20T14:50:26;3.83;;;2.27;;
21905;SDS011;11117;48.644;9.006;2022-11-20T14:52:53;5.17;;;2.23;;
21905;SDS011;11117;48.644;9.006;2022-11-20T14:55:36;5.33;;;3.20;;
21905;SDS011;11117;48.644;9.006;2022-11-20T14:58:04;3.03;;;1.90;;
21905;SDS011;11117;48.644;9.006;2022-11-20T15:00:54;4.70;;;2.40;;
21905;SDS011;11117;48.644;9.006;2022-11-20T15:03:21;4.03;;;2.50;;
21905;SDS011;11117;48.644;9.006;2022-11-20T15:05:48;10.80;;;4.70;;
21905;SDS011;11117;48.644;9.006;2022-11-20T15:08:16;6.50;;;3.20;;
21905;SDS011;11117;48.644;9.006;2022-11-20T15:10:46;6.73;;;4.00;;
21905;SDS011;11117;48.644;9.006;2022-11-20T15:13:16;4.23;;;2.83;;
21905;SDS011;11117;48.644;9.006;2022-11-20T15:15:55;5.00;;;2.10;;
21905;SDS011;11117;48.644;9.006;2022-11-20T15:18:23;11.93;;;5.43;;
21905;SDS011;11117;48.644;9.006;2022-11-20T15:20:53;4.67;;;2.93;;
21905;SDS011;11117;48.644;9.006;2022-11-20T15:23:20;6.50;;;3.60;;
21905;SDS011;11117;48.644;9.006;2022-11-20T15:25:46;4.97;;;3.10;;
21905;SDS011;11117;48.644;9.006;2022-11-20T15:28:20;6.33;;;4.20;;
21905;SDS011;11117;48.644;9.006;2022-11-20T15:30:51;6.77;;;3.03;;
21905;SDS011;11117;48.644;9.006;2022-11-20T15:33:17;7.60;;;3.77;;
21905;SDS011;11117;48.644;9.006;2022-11-20T15:35:43;11.10;;;5.40;;
21905;SDS011;11117;48.644;9.006;2022-11-20T15:38:09;9.27;;;4.97;;
21905;SDS011;11117;48.644;9.006;2022-11-20T15:40:35;9.43;;;6.37;;
21905;SDS011;11117;48.644;9.006;2022-11-20T15:43:00;10.10;;;6.13;;
21905;SDS011;11117;48.644;9.006;2022-11-20T15:45:26;10.60;;;6.27;;
21905;SDS011;11117;48.644;9.006;2022-11-20T15:48:00;13.40;;;6.33;;
21905;SDS011;11117;48.644;9.006;2022-11-20T15:51:11;6.03;;;3.90;;
21905;SDS011;11117;48.644;9.006;2022-11-20T15:53:18;5.63;;;3.40;;
21905;SDS011;11117;48.644;9.006;2022-11-20T15:55:43;7.73;;;3.47;;
21905;SDS011;11117;48.644;9.006;2022-11-20T15:58:09;8.33;;;3.33;;
21905;SDS011;11117;48.644;9.006;2022-11-20T16:00:34;10.00;;;5.97;;
21905;SDS011;11117;48.644;9.006;2022-11-20T16:03:00;5.07;;;3.30;;
21905;SDS011;11117;48.644;9.006;2022-11-20T16:05:29;3.40;;;2.57;;
21905;SDS011;11117;48.644;9.006;2022-11-20T16:07:55;5.90;;;3.40;;
21905;SDS011;11117;48.644;9.006;2022-11-20T16:10:21;7.13;;;3.90;;
21905;SDS011;11117;48.644;9.006;2022-11-20T16:12:46;5.90;;;3.93;;
21905;SDS011;11117;48.644;9.006;2022-11-20T16:15:12;8.67;;;4.87;;
21905;SDS011;11117;48.644;9.006;2022-11-20T16:17:38;6.70;;;4.57;;
21905;SDS011;11117;48.644;9.006;2022-11-20T16:20:03;8.53;;;5.20;;